Data for 05/19/2018

Time Sea-Level Adjusted Pressure Absolute Pressure Temperature Relative Humidity Dew Point   
(mb) (inHg) (mb) (inHg) (C) (F) (%) (C) (F)
00:05 1023 30.21 852 25.16 4.8 40.6 79 1.4 34.5
00:10 1023 30.21 852 25.16 4.7 40.5 80 1.6 34.8
00:15 1023 30.21 852 25.16 4.7 40.4 80 1.5 34.8
00:20 1023 30.21 852 25.16 4.6 40.3 80 1.5 34.7
00:25 1023 30.21 852 25.16 4.6 40.3 80 1.4 34.5
00:30 1023 30.21 852 25.16 4.7 40.4 79 1.3 34.3
00:35 1023 30.21 852 25.16 4.7 40.4 79 1.4 34.5
00:40 1023 30.21 852 25.16 4.6 40.3 80 1.4 34.6
00:45 1023 30.21 852 25.16 4.6 40.2 80 1.4 34.5
00:50 1023 30.21 852 25.16 4.5 40.1 81 1.5 34.6
00:55 1023 30.21 852 25.16 4.5 40 81 1.5 34.7
01:00 1023 30.21 852 25.16 4.4 39.9 81 1.5 34.6
01:05 1023 30.21 852 25.16 4.3 39.8 81 1.4 34.6
01:10 1023 30.21 852 25.16 4.3 39.8 81 1.4 34.5
01:15 1023 30.21 852 25.16 4.3 39.8 81 1.3 34.3
01:20 1023 30.21 852 25.16 4.4 39.8 80 1.3 34.3
01:25 1023 30.21 852 25.16 4.3 39.7 81 1.3 34.4
01:30 1023 30.21 852 25.16 4.3 39.7 80 1.2 34.2
01:35 1023 30.21 852 25.16 4.2 39.6 80 1.2 34.1
01:40 1023 30.21 852 25.16 4.2 39.6 81 1.2 34.2
01:45 1023 30.21 852 25.16 4.2 39.6 80 1.1 33.9
01:50 1022 30.18 852 25.16 4.3 39.7 79 1 33.8
01:55 1022 30.18 852 25.16 4.2 39.6 79 0.9 33.7
02:00 1022 30.18 851 25.13 4.3 39.7 79 0.9 33.7
02:05 1022 30.18 852 25.16 4.3 39.7 79 0.9 33.7
02:10 1022 30.18 852 25.16 4.3 39.8 78 0.8 33.4
02:15 1022 30.18 852 25.16 4.4 39.8 78 0.9 33.6
02:20 1022 30.18 852 25.16 4.3 39.8 78 0.9 33.6
02:25 1022 30.18 852 25.16 4.3 39.8 79 1 33.7
02:30 1022 30.18 852 25.16 4.3 39.7 79 0.9 33.7
02:35 1022 30.18 852 25.16 4.3 39.7 79 0.9 33.6
02:40 1022 30.18 852 25.16 4.3 39.7 79 0.9 33.6
02:45 1022 30.18 852 25.16 4.3 39.7 78 0.8 33.4
02:50 1022 30.18 852 25.16 4.4 39.9 77 0.6 33.1
02:55 1022 30.18 852 25.16 4.4 40 76 0.5 33
03:00 1022 30.18 851 25.13 4.5 40.1 75 0.5 32.9
03:05 1022 30.18 852 25.16 4.5 40.1 75 0.5 32.9
03:10 1022 30.18 852 25.16 4.5 40 75 0.5 32.9
03:15 1022 30.18 852 25.16 4.5 40.1 75 0.5 32.9
03:20 1023 30.21 852 25.16 4.5 40.1 76 0.5 33
03:25 1023 30.21 852 25.16 4.4 39.9 76 0.6 33
03:30 1023 30.21 852 25.16 4.2 39.6 77 0.5 33
03:35 1023 30.21 852 25.16 4.1 39.4 79 0.8 33.4
03:40 1023 30.21 852 25.16 4 39.2 80 0.8 33.4
03:45 1023 30.21 852 25.16 3.9 39 80 0.8 33.5
03:50 1023 30.21 852 25.16 3.9 39 80 0.8 33.4
03:55 1023 30.21 852 25.16 3.9 39 80 0.7 33.2
04:00 1023 30.21 852 25.16 3.9 39.1 79 0.7 33.2
04:05 1022 30.18 852 25.16 4 39.1 79 0.6 33
04:10 1022 30.18 852 25.16 4 39.2 79 0.7 33.3
04:15 1022 30.18 851 25.13 3.9 39.1 79 0.7 33.2
04:20 1022 30.18 851 25.13 4 39.1 79 0.6 33.1
04:25 1022 30.18 851 25.13 4 39.2 78 0.5 33
04:30 1022 30.18 851 25.13 4.1 39.3 78 0.6 33
04:35 1022 30.18 851 25.13 4 39.3 78 0.6 33
04:40 1022 30.18 851 25.13 4 39.3 78 0.6 33.1
04:45 1022 30.18 852 25.16 4 39.3 79 0.7 33.2
04:50 1022 30.18 851 25.13 4 39.2 79 0.6 33.2
04:55 1022 30.18 851 25.13 4 39.2 79 0.7 33.3
05:00 1022 30.18 851 25.13 4 39.2 79 0.7 33.2
05:05 1022 30.18 851 25.13 4 39.2 79 0.7 33.2
05:10 1022 30.18 852 25.16 4 39.3 79 0.7 33.2
05:15 1022 30.18 852 25.16 4 39.2 79 0.6 33.2
05:20 1022 30.18 851 25.13 3.9 39.1 79 0.6 33.2
05:25 1022 30.18 851 25.13 3.9 39.1 79 0.6 33
05:30 1022 30.18 852 25.16 3.9 39.1 79 0.5 33
05:35 1022 30.18 851 25.13 3.9 39 78 0.5 32.9
05:40 1022 30.18 851 25.13 3.9 39 79 0.6 33
05:45 1022 30.18 851 25.13 3.9 38.9 79 0.5 32.9
05:50 1022 30.18 851 25.13 3.9 38.9 78 0.4 32.8
05:55 1022 30.18 851 25.13 3.9 39 78 0.4 32.8
06:00 1022 30.18 851 25.13 3.9 38.9 78 0.4 32.8
06:05 1022 30.18 851 25.13 3.9 38.9 79 0.6 33
06:10 1022 30.18 851 25.13 3.9 38.9 79 0.5 32.9
06:15 1022 30.18 851 25.13 3.8 38.9 79 0.5 32.9
06:20 1022 30.18 851 25.13 3.8 38.9 79 0.5 33
06:25 1022 30.18 851 25.13 3.8 38.8 79 0.5 32.9
06:30 1022 30.18 851 25.13 3.8 38.8 79 0.5 32.9
06:35 1022 30.18 851 25.13 3.8 38.8 80 0.6 33
06:40 1022 30.18 851 25.13 3.8 38.9 79 0.5 32.9
06:45 1022 30.18 851 25.13 3.9 39 79 0.5 32.9
06:50 1022 30.18 852 25.16 3.9 39 79 0.5 33
06:55 1022 30.18 851 25.13 3.9 39 79 0.6 33
07:00 1022 30.18 851 25.13 3.9 39.1 79 0.6 33
07:05 1022 30.18 851 25.13 3.9 39 78 0.4 32.8
07:10 1022 30.18 851 25.13 3.9 39.1 78 0.5 32.9
07:15 1022 30.18 851 25.13 3.9 39.1 78 0.5 32.9
07:20 1022 30.18 851 25.13 3.9 39.1 78 0.5 32.9
07:25 1022 30.18 851 25.13 4 39.2 77 0.4 32.8
07:30 1022 30.18 851 25.13 4 39.3 77 0.4 32.7
07:35 1022 30.18 851 25.13 4.1 39.4 77 0.5 32.9
07:40 1022 30.18 851 25.13 4.2 39.6 77 0.5 33
07:45 1022 30.18 851 25.13 4.2 39.6 77 0.5 32.9
07:50 1022 30.18 851 25.13 4.3 39.7 77 0.5 32.9
07:55 1022 30.18 851 25.13 4.3 39.7 77 0.6 33.1
08:00 1022 30.18 851 25.13 4.2 39.6 77 0.6 33
08:05 1022 30.18 851 25.13 4.3 39.7 76 0.5 32.9
08:10 1022 30.18 852 25.16 4.4 39.9 76 0.5 32.9
08:15 1022 30.18 851 25.13 4.4 39.9 77 0.7 33.2
08:20 1022 30.18 852 25.16 4.5 40 76 0.5 32.9
08:25 1022 30.18 852 25.16 4.5 40.2 75 0.5 33
08:30 1022 30.18 852 25.16 4.7 40.5 75 0.6 33.1
08:35 1022 30.18 852 25.16 4.8 40.7 74 0.6 33.1
08:40 1022 30.18 852 25.16 4.8 40.7 74 0.6 33
08:45 1022 30.18 852 25.16 4.9 40.7 74 0.6 33.1
08:50 1022 30.18 852 25.16 4.9 40.8 74 0.6 33.1
08:55 1022 30.18 852 25.16 5 41 72 0.5 32.8
09:00 1022 30.18 852 25.16 5.1 41.1 72 0.5 32.9
09:05 1023 30.21 852 25.16 5.1 41.1 72 0.4 32.8
09:10 1023 30.21 852 25.16 5 41 73 0.6 33
09:15 1023 30.21 852 25.16 5.1 41.1 72 0.5 32.9
09:20 1022 30.18 852 25.16 5.2 41.3 72 0.6 33.1
09:25 1022 30.18 852 25.16 5.2 41.4 72 0.6 33.1
09:30 1022 30.18 852 25.16 5.1 41.3 73 0.8 33.4
09:35 1022 30.18 852 25.16 5.2 41.3 73 0.7 33.2
09:40 1022 30.18 852 25.16 5.3 41.6 73 0.9 33.6
09:45 1022 30.18 852 25.16 5.5 41.9 73 1.1 34
09:50 1022 30.18 852 25.16 5.4 41.8 72 0.8 33.4
09:55 1022 30.18 852 25.16 5.3 41.6 72 0.8 33.4
10:00 1022 30.18 852 25.16 5.5 41.9 72 0.8 33.4
10:05 1022 30.18 852 25.16 5.6 42.2 69 0.5 32.9
10:10 1022 30.18 851 25.13 5.6 42 70 0.5 32.9
10:15 1022 30.18 851 25.13 5.6 42.2 70 0.6 33
10:20 1022 30.18 852 25.16 5.8 42.5 69 0.5 32.9
10:25 1022 30.18 851 25.13 5.9 42.7 68 0.6 33
10:30 1022 30.18 852 25.16 6 42.8 68 0.5 33
10:35 1022 30.18 852 25.16 6.3 43.4 66 0.5 32.9
10:40 1022 30.18 852 25.16 6.6 43.8 65 0.5 32.8
10:45 1022 30.18 852 25.16 6.6 43.9 66 0.7 33.2
10:50 1022 30.18 851 25.13 6.5 43.7 66 0.7 33.3
10:55 1022 30.18 851 25.13 6.7 44 65 0.7 33.2
11:00 1022 30.18 851 25.13 6.8 44.2 64 0.4 32.8
11:05 1022 30.18 851 25.13 6.8 44.3 65 0.7 33.2
11:10 1022 30.18 851 25.13 6.9 44.4 64 0.5 32.8
11:15 1022 30.18 851 25.13 7.2 45 62 0.4 32.8
11:20 1022 30.18 851 25.13 7.5 45.4 63 0.9 33.6
11:25 1022 30.18 851 25.13 7.4 45.2 64 1 33.9
11:30 1022 30.18 851 25.13 7.3 45.1 64 1 33.8
11:35 1022 30.18 851 25.13 7.3 45.1 63 0.8 33.4
11:40 1022 30.18 851 25.13 7.4 45.4 62 0.7 33.3
11:45 1022 30.18 851 25.13 7.5 45.5 63 1 33.9
11:50 1022 30.18 851 25.13 7.3 45.1 64 0.9 33.6
11:55 1022 30.18 851 25.13 7.8 46 61 0.7 33.2
12:00 1022 30.18 851 25.13 7.7 45.8 63 1.1 34
12:05 1022 30.18 851 25.13 7.7 45.8 62 0.9 33.6
12:10 1022 30.18 851 25.13 7.6 45.7 61 0.5 33
12:15 1022 30.18 851 25.13 7.8 46 60 0.6 33.1
12:20 1022 30.18 851 25.13 8 46.4 58 0.3 32.6
12:25 1022 30.18 851 25.13 8.7 47.6 58 0.9 33.6
12:30 1022 30.18 851 25.13 8.6 47.6 59 1.1 34
12:35 1022 30.18 851 25.13 8.5 47.2 59 1 33.8
12:40 1022 30.18 851 25.13 8.5 47.3 59 1 33.7
12:45 1022 30.18 851 25.13 8.5 47.3 59 1 33.7
12:50 1022 30.18 851 25.13 8.2 46.7 62 1.3 34.3
12:55 1022 30.18 851 25.13 7.9 46.1 62 1.1 34
13:00 1022 30.18 851 25.13 7.8 46.1 62 1.1 34
13:05 1022 30.18 851 25.13 7.8 46.1 63 1.3 34.3
13:10 1022 30.18 851 25.13 8 46.4 61 1 33.9
13:15 1022 30.18 851 25.13 8.2 46.7 61 1 33.8
13:20 1022 30.18 851 25.13 8.5 47.2 61 1.5 34.7
13:25 1022 30.18 851 25.13 8.5 47.2 63 1.8 35.2
13:30 1022 30.18 851 25.13 8.6 47.6 62 1.8 35.2
13:35 1022 30.18 851 25.13 8.4 47.1 63 1.8 35.3
13:40 1022 30.18 851 25.13 8.5 47.2 62 1.5 34.8
13:45 1022 30.18 851 25.13 8.7 47.6 62 1.7 35.1
13:50 1022 30.18 851 25.13 8.6 47.4 63 2 35.6
13:55 1022 30.18 851 25.13 8.4 47.1 63 1.7 35.1
14:00 1022 30.18 851 25.13 8.3 47 64 1.9 35.5
14:05 1022 30.18 851 25.13 8.7 47.6 63 2.1 35.8
14:10 1022 30.18 851 25.13 8.5 47.3 64 2.1 35.7
14:15 1022 30.18 851 25.13 8.9 48.1 62 2.2 35.9
14:20 1022 30.18 851 25.13 8.4 47.2 64 2.1 35.8
14:25 1022 30.18 851 25.13 8.9 47.9 62 1.9 35.5
14:30 1022 30.18 851 25.13 9.1 48.4 61 2.1 35.7
14:35 1022 30.18 851 25.13 8.9 48.1 64 2.4 36.4
14:40 1022 30.18 851 25.13 8.8 47.8 63 2.2 35.9
14:45 1022 30.18 851 25.13 8.5 47.3 65 2.3 36.1
14:50 1022 30.18 851 25.13 8.3 46.9 65 2.2 36
14:55 1022 30.18 851 25.13 8.6 47.5 65 2.5 36.5
15:00 1022 30.18 851 25.13 8.2 46.8 66 2.3 36.1
15:05 1022 30.18 851 25.13 8.7 47.7 64 2.3 36.1
15:10 1022 30.18 851 25.13 8.9 48.1 63 2.2 36
15:15 1022 30.18 851 25.13 8.7 47.6 63 2.1 35.8
15:20 1022 30.18 851 25.13 9 48.1 62 2.1 35.7
15:25 1022 30.18 851 25.13 8.9 48 65 2.7 36.9
15:30 1022 30.18 851 25.13 8.3 46.9 67 2.6 36.7
15:35 1022 30.18 851 25.13 8.2 46.7 66 2.2 36
15:40 1022 30.18 851 25.13 8.3 46.9 66 2.4 36.3
15:45 1022 30.18 851 25.13 7.8 46.1 68 2.4 36.3
15:50 1022 30.18 851 25.13 7.7 45.8 67 2 35.7
15:55 1022 30.18 851 25.13 7.7 45.9 68 2.2 35.9
16:00 1022 30.18 851 25.13 7.6 45.7 68 2 35.7
16:05 1022 30.18 851 25.13 7.8 46.1 68 2.4 36.3
16:10 1022 30.18 851 25.13 7.7 45.8 69 2.4 36.3
16:15 1022 30.18 851 25.13 7.8 46.1 68 2.4 36.3
16:20 1022 30.18 851 25.13 7.6 45.7 69 2.3 36.1
16:25 1022 30.18 851 25.13 7.7 45.8 70 2.5 36.5
16:30 1022 30.18 851 25.13 7.6 45.6 72 2.8 37
16:35 1022 30.18 851 25.13 7.7 45.8 69 2.4 36.2
16:40 1022 30.18 851 25.13 7.8 46.1 69 2.5 36.5
16:45 1021 30.15 851 25.13 8.1 46.5 68 2.6 36.6
16:50 1021 30.15 851 25.13 8 46.3 69 2.7 36.9
16:55 1021 30.15 851 25.13 7.9 46.1 69 2.5 36.5
17:00 1021 30.15 851 25.13 8 46.5 69 2.7 36.8
17:05 1021 30.15 851 25.13 7.9 46.2 69 2.7 36.8
17:10 1021 30.15 850 25.1 8.3 47 67 2.6 36.7
17:15 1021 30.15 850 25.1 8.1 46.6 69 2.8 37.1
17:20 1021 30.15 850 25.1 7.9 46.3 69 2.6 36.7
17:25 1021 30.15 850 25.1 8 46.3 70 2.8 37
17:30 1021 30.15 850 25.1 7.8 46 70 2.6 36.7
17:35 1021 30.15 850 25.1 7.7 45.9 70 2.5 36.6
17:40 1021 30.15 850 25.1 7.9 46.2 70 2.7 36.9
17:45 1021 30.15 850 25.1 7.8 46.1 70 2.7 36.8
17:50 1021 30.15 850 25.1 8.1 46.6 69 2.8 37.1
17:55 1021 30.15 850 25.1 7.9 46.3 71 2.9 37.3
18:00 1021 30.15 850 25.1 7.7 45.9 70 2.7 36.8
18:05 1021 30.15 850 25.1 7.8 46 70 2.7 36.9
18:10 1021 30.15 850 25.1 8 46.3 69 2.7 36.9
18:15 1021 30.15 850 25.1 7.7 45.9 71 2.8 37
18:20 1021 30.15 850 25.1 7.7 45.9 71 2.8 37.1
18:25 1021 30.15 850 25.1 7.6 45.6 71 2.6 36.7
18:30 1021 30.15 850 25.1 7.6 45.7 71 2.7 36.8
18:35 1021 30.15 850 25.1 7.6 45.6 71 2.7 36.9
18:40 1021 30.15 850 25.1 7.6 45.6 72 2.8 37
18:45 1021 30.15 850 25.1 7.4 45.3 73 2.8 37.1
18:50 1021 30.15 850 25.1 7.3 45.2 73 2.8 37.1
18:55 1021 30.15 850 25.1 7.5 45.4 72 2.8 37.1
19:00 1021 30.15 850 25.1 7.5 45.5 72 2.8 37.1
19:05 1021 30.15 850 25.1 7.5 45.5 72 2.7 36.9
19:10 1021 30.15 850 25.1 7.2 44.9 73 2.6 36.8
19:15 1021 30.15 850 25.1 7.1 44.8 73 2.7 36.8
19:20 1021 30.15 850 25.1 7.3 45.1 73 2.8 37.1
19:25 1021 30.15 850 25.1 7.2 44.9 74 2.9 37.2
19:30 1021 30.15 850 25.1 7 44.7 74 2.8 37
19:35 1021 30.15 850 25.1 7 44.6 74 2.7 36.8
19:40 1021 30.15 850 25.1 7.2 44.9 73 2.7 36.9
19:45 1021 30.15 850 25.1 7.1 44.8 74 2.8 37
19:50 1021 30.15 850 25.1 7.1 44.7 74 2.8 37.1
19:55 1021 30.15 850 25.1 7.2 44.9 73 2.6 36.7
20:00 1021 30.15 850 25.1 7.1 44.7 73 2.6 36.7
20:05 1021 30.15 850 25.1 7 44.6 73 2.6 36.6
20:10 1021 30.15 850 25.1 7.1 44.7 72 2.4 36.4
20:15 1021 30.15 850 25.1 7.1 44.7 72 2.5 36.4
20:20 1021 30.15 850 25.1 7 44.5 73 2.5 36.4
20:25 1021 30.15 850 25.1 6.9 44.5 73 2.4 36.3
20:30 1021 30.15 850 25.1 6.9 44.5 73 2.4 36.3
20:35 1021 30.15 850 25.1 6.9 44.4 73 2.4 36.3
20:40 1021 30.15 850 25.1 6.9 44.3 74 2.5 36.5
20:45 1021 30.15 850 25.1 6.8 44.3 74 2.5 36.6
20:50 1021 30.15 850 25.1 6.7 44.1 74 2.5 36.5
20:55 1021 30.15 850 25.1 6.7 44.1 74 2.5 36.5
21:00 1021 30.15 850 25.1 6.7 44 74 2.4 36.3
21:05 1021 30.15 850 25.1 6.7 44 74 2.5 36.5
21:10 1021 30.15 850 25.1 6.6 43.9 75 2.5 36.5
21:15 1021 30.15 850 25.1 6.6 44 75 2.5 36.5
21:20 1021 30.15 850 25.1 6.6 43.9 75 2.5 36.5
21:25 1021 30.15 850 25.1 6.6 43.9 75 2.5 36.6
21:30 1021 30.15 850 25.1 6.6 43.8 75 2.5 36.6
21:35 1021 30.15 850 25.1 6.6 43.9 75 2.5 36.5
21:40 1021 30.15 850 25.1 6.6 43.9 76 2.6 36.7
21:45 1021 30.15 850 25.1 6.6 43.8 76 2.6 36.8
21:50 1021 30.15 850 25.1 6.5 43.7 76 2.6 36.7
21:55 1021 30.15 850 25.1 6.5 43.8 76 2.7 36.9
22:00 1021 30.15 850 25.1 6.5 43.7 77 2.8 37
22:05 1021 30.15 850 25.1 6.5 43.6 78 2.8 37.1
22:10 1021 30.15 850 25.1 6.5 43.6 78 2.9 37.2
22:15 1021 30.15 850 25.1 6.4 43.6 78 2.9 37.2
22:20 1021 30.15 850 25.1 6.4 43.5 79 3 37.4
22:25 1021 30.15 850 25.1 6.4 43.5 79 3 37.4
22:30 1021 30.15 850 25.1 6.3 43.4 79 3.1 37.5
22:35 1021 30.15 851 25.13 6.3 43.4 79 3 37.4
22:40 1021 30.15 851 25.13 6.3 43.3 80 3 37.5
22:45 1021 30.15 851 25.13 6.3 43.3 80 3 37.5
22:50 1021 30.15 851 25.13 6.3 43.3 80 3.1 37.6
22:55 1021 30.15 851 25.13 6.2 43.2 81 3.1 37.6
23:00 1021 30.15 851 25.13 6.2 43.1 81 3.2 37.7
23:05 1022 30.18 851 25.13 6.1 43.1 81 3.1 37.7
23:10 1021 30.15 851 25.13 6.1 43 81 3.1 37.6
23:15 1022 30.18 851 25.13 6.1 43 81 3.1 37.7
23:20 1022 30.18 851 25.13 6.1 42.9 81 3.1 37.6
23:25 1021 30.15 851 25.13 6 42.9 81 3.1 37.6
23:30 1021 30.15 851 25.13 6.1 42.9 81 3.1 37.5
23:35 1021 30.15 851 25.13 6.1 43 80 3 37.4
23:40 1021 30.15 851 25.13 6.1 43 81 3 37.5
23:45 1021 30.15 850 25.1 6.1 43 80 3 37.4
23:50 1021 30.15 850 25.1 6.1 43 81 3.1 37.5
23:55 1021 30.15 850 25.1 6.1 43 81 3 37.5
24:00 1021 30.15 850 25.1 6.1 43 81 3 37.5